sensor_id;sensor_type;location;lat;lon;timestamp;pressure;altitude;pressure_sealevel;temperature;humidity
58295;BME280;45705;55.592;37.460;2022-09-20T00:01:09;97888.28;;;10.17;100.00
58295;BME280;45705;55.592;37.460;2022-09-20T00:03:36;97891.31;;;10.15;100.00
58295;BME280;45705;55.592;37.460;2022-09-20T00:06:05;97904.22;;;10.18;100.00
58295;BME280;45705;55.592;37.460;2022-09-20T00:08:31;97908.44;;;10.28;100.00
58295;BME280;45705;55.592;37.460;2022-09-20T00:11:05;97911.16;;;10.28;100.00
58295;BME280;45705;55.592;37.460;2022-09-20T00:13:32;97912.91;;;10.12;100.00
58295;BME280;45705;55.592;37.460;2022-09-20T00:15:58;97923.50;;;10.25;100.00
58295;BME280;45705;55.592;37.460;2022-09-20T00:18:25;97914.41;;;10.21;100.00
58295;BME280;45705;55.592;37.460;2022-09-20T00:20:52;97919.84;;;10.21;100.00
58295;BME280;45705;55.592;37.460;2022-09-20T00:23:18;97924.16;;;10.22;100.00
58295;BME280;45705;55.592;37.460;2022-09-20T00:25:44;97922.81;;;10.29;100.00
58295;BME280;45705;55.592;37.460;2022-09-20T00:28:11;97922.81;;;10.29;100.00
58295;BME280;45705;55.592;37.460;2022-09-20T00:30:37;97919.38;;;10.19;100.00
58295;BME280;45705;55.592;37.460;2022-09-20T00:33:03;97935.03;;;10.22;100.00
58295;BME280;45705;55.592;37.460;2022-09-20T00:35:29;97929.41;;;10.28;100.00
58295;BME280;45705;55.592;37.460;2022-09-20T00:37:55;97936.59;;;10.23;100.00
58295;BME280;45705;55.592;37.460;2022-09-20T00:40:23;97936.84;;;10.18;100.00
58295;BME280;45705;55.592;37.460;2022-09-20T00:42:49;97941.66;;;10.34;100.00
58295;BME280;45705;55.592;37.460;2022-09-20T00:45:19;97943.91;;;10.32;100.00
58295;BME280;45705;55.592;37.460;2022-09-20T00:53:24;97952.66;;;10.16;100.00
58295;BME280;45705;55.592;37.460;2022-09-20T00:55:56;97954.94;;;10.14;100.00
58295;BME280;45705;55.592;37.460;2022-09-20T00:58:26;97960.84;;;10.29;100.00
58295;BME280;45705;55.592;37.460;2022-09-20T01:00:54;97955.16;;;10.21;100.00
58295;BME280;45705;55.592;37.460;2022-09-20T01:03:22;97966.72;;;10.18;100.00
58295;BME280;45705;55.592;37.460;2022-09-20T01:05:50;97962.84;;;10.19;100.00
58295;BME280;45705;55.592;37.460;2022-09-20T01:08:18;97978.50;;;10.22;100.00
58295;BME280;45705;55.592;37.460;2022-09-20T01:10:45;97966.84;;;10.22;100.00
58295;BME280;45705;55.592;37.460;2022-09-20T01:13:11;97977.13;;;10.16;100.00
58295;BME280;45705;55.592;37.460;2022-09-20T01:15:37;97979.16;;;10.19;100.00
58295;BME280;45705;55.592;37.460;2022-09-20T01:18:05;97980.88;;;10.24;100.00
58295;BME280;45705;55.592;37.460;2022-09-20T01:20:39;97979.03;;;10.16;100.00
58295;BME280;45705;55.592;37.460;2022-09-20T01:28:44;98000.97;;;10.32;100.00
58295;BME280;45705;55.592;37.460;2022-09-20T01:31:22;98003.00;;;10.35;100.00
58295;BME280;45705;55.592;37.460;2022-09-20T01:33:57;98003.47;;;10.37;100.00
58295;BME280;45705;55.592;37.460;2022-09-20T01:36:32;97997.03;;;10.20;100.00
58295;BME280;45705;55.592;37.460;2022-09-20T01:39:12;98011.59;;;10.37;100.00
58295;BME280;45705;55.592;37.460;2022-09-20T02:12:54;98041.56;;;10.07;100.00
58295;BME280;45705;55.592;37.460;2022-09-20T02:15:34;98046.00;;;10.12;100.00
58295;BME280;45705;55.592;37.460;2022-09-20T02:21:10;98057.00;;;10.15;100.00
58295;BME280;45705;55.592;37.460;2022-09-20T02:26:14;98065.00;;;10.12;100.00
58295;BME280;45705;55.592;37.460;2022-09-20T02:34:55;98083.91;;;10.08;100.00
58295;BME280;45705;55.592;37.460;2022-09-20T02:37:54;98097.09;;;10.18;100.00
58295;BME280;45705;55.592;37.460;2022-09-20T02:48:33;98103.31;;;10.19;100.00
58295;BME280;45705;55.592;37.460;2022-09-20T02:51:15;98109.06;;;10.17;100.00
58295;BME280;45705;55.592;37.460;2022-09-20T02:53:46;98123.31;;;10.14;100.00
58295;BME280;45705;55.592;37.460;2022-09-20T02:56:21;98116.75;;;10.15;100.00
58295;BME280;45705;55.592;37.460;2022-09-20T02:59:09;98125.31;;;10.05;100.00
58295;BME280;45705;55.592;37.460;2022-09-20T03:05:11;98132.31;;;10.06;100.00
58295;BME280;45705;55.592;37.460;2022-09-20T03:07:51;98145.06;;;10.14;100.00
58295;BME280;45705;55.592;37.460;2022-09-20T03:10:34;98147.94;;;10.09;100.00
58295;BME280;45705;55.592;37.460;2022-09-20T03:21:49;98169.53;;;10.05;100.00
58295;BME280;45705;55.592;37.460;2022-09-20T03:27:10;98185.38;;;10.03;100.00
58295;BME280;45705;55.592;37.460;2022-09-20T03:33:06;98187.69;;;10.14;100.00
58295;BME280;45705;55.592;37.460;2022-09-20T03:41:38;98195.66;;;10.19;100.00
58295;BME280;45705;55.592;37.460;2022-09-20T03:47:46;98213.69;;;10.23;100.00
58295;BME280;45705;55.592;37.460;2022-09-20T04:14:56;98244.09;;;10.47;100.00
58295;BME280;45705;55.592;37.460;2022-09-20T04:20:36;98255.00;;;10.68;100.00
58295;BME280;45705;55.592;37.460;2022-09-20T04:23:31;98245.84;;;10.51;100.00
58295;BME280;45705;55.592;37.460;2022-09-20T04:26:02;98271.81;;;10.40;100.00
58295;BME280;45705;55.592;37.460;2022-09-20T04:28:48;98267.84;;;10.58;100.00
58295;BME280;45705;55.592;37.460;2022-09-20T04:31:32;98274.81;;;10.47;100.00
58295;BME280;45705;55.592;37.460;2022-09-20T04:34:04;98272.91;;;10.69;100.00
58295;BME280;45705;55.592;37.460;2022-09-20T04:36:51;98281.53;;;10.71;100.00
58295;BME280;45705;55.592;37.460;2022-09-20T04:39:48;98284.72;;;10.73;100.00
58295;BME280;45705;55.592;37.460;2022-09-20T04:42:36;98289.75;;;10.83;100.00
58295;BME280;45705;55.592;37.460;2022-09-20T04:58:54;98309.94;;;10.82;100.00
58295;BME280;45705;55.592;37.460;2022-09-20T05:17:28;98336.19;;;11.20;100.00
58295;BME280;45705;55.592;37.460;2022-09-20T05:28:53;98358.38;;;11.10;100.00
58295;BME280;45705;55.592;37.460;2022-09-20T05:37:11;98355.34;;;11.32;100.00
58295;BME280;45705;55.592;37.460;2022-09-20T05:40:02;98376.81;;;11.25;100.00
58295;BME280;45705;55.592;37.460;2022-09-20T05:47:59;98376.38;;;11.23;100.00
58295;BME280;45705;55.592;37.460;2022-09-20T05:51:16;98382.13;;;11.42;100.00
58295;BME280;45705;55.592;37.460;2022-09-20T05:53:55;98385.72;;;11.34;100.00
58295;BME280;45705;55.592;37.460;2022-09-20T05:59:33;98392.34;;;11.46;100.00
58295;BME280;45705;55.592;37.460;2022-09-20T06:02:30;98394.88;;;11.51;100.00
58295;BME280;45705;55.592;37.460;2022-09-20T06:05:18;98400.44;;;11.33;100.00
58295;BME280;45705;55.592;37.460;2022-09-20T06:21:53;98420.66;;;12.66;98.86
58295;BME280;45705;55.592;37.460;2022-09-20T06:24:42;98421.81;;;13.02;94.39
58295;BME280;45705;55.592;37.460;2022-09-20T06:27:20;98429.97;;;13.38;92.58
58295;BME280;45705;55.592;37.460;2022-09-20T06:29:56;98441.00;;;13.42;91.03
58295;BME280;45705;55.592;37.460;2022-09-20T06:32:23;98433.72;;;13.74;87.88
58295;BME280;45705;55.592;37.460;2022-09-20T06:34:48;98438.38;;;13.33;89.36
58295;BME280;45705;55.592;37.460;2022-09-20T06:40:36;98438.66;;;13.69;88.33
58295;BME280;45705;55.592;37.460;2022-09-20T06:43:18;98444.75;;;13.37;88.76
58295;BME280;45705;55.592;37.460;2022-09-20T06:45:44;98457.72;;;13.04;89.05
58295;BME280;45705;55.592;37.460;2022-09-20T06:48:10;98456.38;;;13.34;87.69
58295;BME280;45705;55.592;37.460;2022-09-20T06:50:38;98462.53;;;13.07;88.39
58295;BME280;45705;55.592;37.460;2022-09-20T06:53:05;98468.19;;;13.38;87.98
58295;BME280;45705;55.592;37.460;2022-09-20T06:55:34;98459.56;;;13.36;88.02
58295;BME280;45705;55.592;37.460;2022-09-20T06:58:03;98464.19;;;13.24;88.24
58295;BME280;45705;55.592;37.460;2022-09-20T07:00:28;98474.53;;;13.18;87.66
58295;BME280;45705;55.592;37.460;2022-09-20T07:02:54;98476.38;;;13.26;86.53
58295;BME280;45705;55.592;37.460;2022-09-20T07:05:21;98484.13;;;13.24;87.24
58295;BME280;45705;55.592;37.460;2022-09-20T07:07:47;98472.06;;;13.13;88.01
58295;BME280;45705;55.592;37.460;2022-09-20T07:10:13;98475.94;;;12.87;89.09
58295;BME280;45705;55.592;37.460;2022-09-20T07:12:40;98489.13;;;13.10;88.72
58295;BME280;45705;55.592;37.460;2022-09-20T07:15:06;98477.97;;;13.03;88.31
58295;BME280;45705;55.592;37.460;2022-09-20T07:17:32;98492.97;;;12.84;89.10
58295;BME280;45705;55.592;37.460;2022-09-20T07:19:59;98483.97;;;12.71;89.54
58295;BME280;45705;55.592;37.460;2022-09-20T07:22:25;98489.06;;;12.60;89.90
58295;BME280;45705;55.592;37.460;2022-09-20T07:24:51;98492.66;;;12.40;92.11
58295;BME280;45705;55.592;37.460;2022-09-20T07:27:17;98481.16;;;12.80;90.43
58295;BME280;45705;55.592;37.460;2022-09-20T07:29:43;98498.66;;;12.91;89.31
58295;BME280;45705;55.592;37.460;2022-09-20T07:32:11;98512.75;;;12.93;89.23
58295;BME280;45705;55.592;37.460;2022-09-20T07:34:36;98511.03;;;12.89;88.77
58295;BME280;45705;55.592;37.460;2022-09-20T07:37:02;98502.41;;;12.87;88.78
58295;BME280;45705;55.592;37.460;2022-09-20T07:39:28;98505.25;;;12.78;89.56
58295;BME280;45705;55.592;37.460;2022-09-20T07:41:54;98507.00;;;13.32;87.34
58295;BME280;45705;55.592;37.460;2022-09-20T07:44:20;98515.31;;;13.48;85.53
58295;BME280;45705;55.592;37.460;2022-09-20T07:46:53;98509.59;;;13.53;84.55
58295;BME280;45705;55.592;37.460;2022-09-20T07:49:19;98506.72;;;13.74;82.25
58295;BME280;45705;55.592;37.460;2022-09-20T07:51:47;98496.16;;;13.60;83.00
58295;BME280;45705;55.592;37.460;2022-09-20T07:54:13;98505.50;;;13.59;83.59
58295;BME280;45705;55.592;37.460;2022-09-20T07:56:39;98508.09;;;13.68;83.60
58295;BME280;45705;55.592;37.460;2022-09-20T07:59:04;98496.75;;;13.53;84.67
58295;BME280;45705;55.592;37.460;2022-09-20T08:01:30;98513.88;;;13.78;84.58
58295;BME280;45705;55.592;37.460;2022-09-20T08:03:56;98507.28;;;13.79;83.28
58295;BME280;45705;55.592;37.460;2022-09-20T08:06:22;98516.38;;;13.84;82.65
58295;BME280;45705;55.592;37.460;2022-09-20T08:08:48;98516.16;;;13.76;83.26
58295;BME280;45705;55.592;37.460;2022-09-20T08:11:18;98513.88;;;13.78;81.66
58295;BME280;45705;55.592;37.460;2022-09-20T08:13:49;98521.63;;;13.64;81.59
58295;BME280;45705;55.592;37.460;2022-09-20T08:16:15;98521.38;;;13.82;81.57
58295;BME280;45705;55.592;37.460;2022-09-20T08:18:45;98515.75;;;13.37;83.11
58295;BME280;45705;55.592;37.460;2022-09-20T08:21:12;98529.84;;;13.39;84.03
58295;BME280;45705;55.592;37.460;2022-09-20T08:23:41;98532.31;;;13.20;85.00
58295;BME280;45705;55.592;37.460;2022-09-20T08:26:11;98533.66;;;13.88;82.81
58295;BME280;45705;55.592;37.460;2022-09-20T08:28:38;98536.38;;;14.00;83.07
58295;BME280;45705;55.592;37.460;2022-09-20T08:31:06;98535.81;;;13.82;83.91
58295;BME280;45705;55.592;37.460;2022-09-20T08:33:33;98546.13;;;14.13;81.79
58295;BME280;45705;55.592;37.460;2022-09-20T08:36:03;98545.53;;;14.48;79.40
58295;BME280;45705;55.592;37.460;2022-09-20T08:38:30;98554.19;;;14.50;78.96
58295;BME280;45705;55.592;37.460;2022-09-20T08:41:06;98548.81;;;14.82;76.49
58295;BME280;45705;55.592;37.460;2022-09-20T08:43:38;98547.72;;;14.43;76.55
58295;BME280;45705;55.592;37.460;2022-09-20T08:46:05;98550.81;;;14.01;79.50
58295;BME280;45705;55.592;37.460;2022-09-20T08:48:34;98548.63;;;14.47;77.78
58295;BME280;45705;55.592;37.460;2022-09-20T08:51:02;98545.09;;;14.46;77.64
58295;BME280;45705;55.592;37.460;2022-09-20T08:53:29;98552.22;;;14.23;77.48
58295;BME280;45705;55.592;37.460;2022-09-20T08:55:56;98556.16;;;14.09;77.84
58295;BME280;45705;55.592;37.460;2022-09-20T08:58:26;98555.31;;;14.49;76.49
58295;BME280;45705;55.592;37.460;2022-09-20T09:00:52;98549.06;;;14.21;77.05
58295;BME280;45705;55.592;37.460;2022-09-20T09:03:19;98556.69;;;14.27;77.19
58295;BME280;45705;55.592;37.460;2022-09-20T09:08:14;98559.13;;;14.04;78.42
58295;BME280;45705;55.592;37.460;2022-09-20T09:10:45;98566.66;;;13.95;78.16
58295;BME280;45705;55.592;37.460;2022-09-20T09:13:24;98564.41;;;13.72;79.71
58295;BME280;45705;55.592;37.460;2022-09-20T09:15:57;98572.16;;;13.70;79.53
58295;BME280;45705;55.592;37.460;2022-09-20T09:18:35;98579.53;;;13.82;79.98
58295;BME280;45705;55.592;37.460;2022-09-20T09:21:03;98567.28;;;14.16;78.75
58295;BME280;45705;55.592;37.460;2022-09-20T09:23:38;98580.03;;;14.25;79.19
58295;BME280;45705;55.592;37.460;2022-09-20T09:26:14;98582.06;;;14.28;79.52
58295;BME280;45705;55.592;37.460;2022-09-20T09:28:40;98581.84;;;14.33;79.31
58295;BME280;45705;55.592;37.460;2022-09-20T09:31:21;98586.59;;;14.36;80.17
58295;BME280;45705;55.592;37.460;2022-09-20T09:33:47;98595.56;;;14.08;80.68
58295;BME280;45705;55.592;37.460;2022-09-20T09:36:16;98591.22;;;14.07;81.64
58295;BME280;45705;55.592;37.460;2022-09-20T09:38:45;98592.22;;;14.27;80.88
58295;BME280;45705;55.592;37.460;2022-09-20T09:41:24;98601.72;;;14.17;80.63
58295;BME280;45705;55.592;37.460;2022-09-20T09:43:59;98597.94;;;14.22;79.80
58295;BME280;45705;55.592;37.460;2022-09-20T09:46:30;98592.25;;;14.15;79.24
58295;BME280;45705;55.592;37.460;2022-09-20T09:51:34;98610.84;;;13.97;77.86
58295;BME280;45705;55.592;37.460;2022-09-20T09:54:01;98610.28;;;13.91;77.35
58295;BME280;45705;55.592;37.460;2022-09-20T10:10:38;98621.66;;;14.59;75.03
58295;BME280;45705;55.592;37.460;2022-09-20T10:19:14;98626.78;;;13.95;77.89
58295;BME280;45705;55.592;37.460;2022-09-20T10:21:49;98625.16;;;14.18;77.44
58295;BME280;45705;55.592;37.460;2022-09-20T10:32:46;98631.28;;;14.28;76.14
58295;BME280;45705;55.592;37.460;2022-09-20T10:35:54;98631.53;;;14.35;76.34
58295;BME280;45705;55.592;37.460;2022-09-20T10:38:29;98638.25;;;14.13;77.25
58295;BME280;45705;55.592;37.460;2022-09-20T10:41:20;98636.50;;;13.68;79.54
58295;BME280;45705;55.592;37.460;2022-09-20T10:47:15;98623.41;;;13.61;80.04
58295;BME280;45705;55.592;37.460;2022-09-20T10:55:41;98659.69;;;14.23;78.05
58295;BME280;45705;55.592;37.460;2022-09-20T10:58:27;98654.34;;;14.02;79.25
58295;BME280;45705;55.592;37.460;2022-09-20T11:01:19;98669.28;;;13.68;81.05
58295;BME280;45705;55.592;37.460;2022-09-20T11:04:07;98665.25;;;13.53;82.25
58295;BME280;45705;55.592;37.460;2022-09-20T11:06:54;98672.88;;;13.47;82.53
58295;BME280;45705;55.592;37.460;2022-09-20T11:09:33;98676.63;;;13.43;83.92
58295;BME280;45705;55.592;37.460;2022-09-20T11:12:19;98672.00;;;13.22;84.41
58295;BME280;45705;55.592;37.460;2022-09-20T11:14:53;98692.56;;;13.53;83.22
58295;BME280;45705;55.592;37.460;2022-09-20T11:17:44;98679.28;;;13.64;81.68
58295;BME280;45705;55.592;37.460;2022-09-20T11:20:18;98700.09;;;13.44;81.63
58295;BME280;45705;55.592;37.460;2022-09-20T11:22:50;98699.78;;;13.70;80.99
58295;BME280;45705;55.592;37.460;2022-09-20T11:26:06;98711.94;;;13.72;79.55
58295;BME280;45705;55.592;37.460;2022-09-20T11:28:13;98725.81;;;13.55;81.75
58295;BME280;45705;55.592;37.460;2022-09-20T11:33:43;98719.47;;;13.63;81.45
58295;BME280;45705;55.592;37.460;2022-09-20T11:36:27;98721.78;;;13.98;80.56
58295;BME280;45705;55.592;37.460;2022-09-20T11:39:01;98714.72;;;13.85;80.18
58295;BME280;45705;55.592;37.460;2022-09-20T11:41:29;98729.28;;;13.76;82.37
58295;BME280;45705;55.592;37.460;2022-09-20T11:44:05;98724.47;;;13.28;84.27
58295;BME280;45705;55.592;37.460;2022-09-20T11:49:28;98730.38;;;12.96;86.09
58295;BME280;45705;55.592;37.460;2022-09-20T11:55:25;98742.63;;;13.11;87.52
58295;BME280;45705;55.592;37.460;2022-09-20T11:58:00;98742.47;;;13.08;86.88
58295;BME280;45705;55.592;37.460;2022-09-20T12:00:33;98724.31;;;12.91;87.63
58295;BME280;45705;55.592;37.460;2022-09-20T12:03:02;98739.75;;;13.08;87.88
58295;BME280;45705;55.592;37.460;2022-09-20T12:05:39;98737.22;;;13.03;87.75
58295;BME280;45705;55.592;37.460;2022-09-20T12:08:25;98719.00;;;12.94;87.43
58295;BME280;45705;55.592;37.460;2022-09-20T12:11:12;98748.25;;;13.06;86.73
58295;BME280;45705;55.592;37.460;2022-09-20T12:14:32;98747.50;;;13.18;86.50
58295;BME280;45705;55.592;37.460;2022-09-20T12:16:47;98745.66;;;13.31;86.79
58295;BME280;45705;55.592;37.460;2022-09-20T12:19:34;98746.06;;;13.54;85.64
58295;BME280;45705;55.592;37.460;2022-09-20T12:24:33;98759.78;;;12.91;88.55
58295;BME280;45705;55.592;37.460;2022-09-20T12:30:19;98742.09;;;12.76;88.19
58295;BME280;45705;55.592;37.460;2022-09-20T12:32:54;98760.53;;;12.79;88.52
58295;BME280;45705;55.592;37.460;2022-09-20T12:38:29;98772.69;;;13.03;86.71
58295;BME280;45705;55.592;37.460;2022-09-20T12:41:11;98762.59;;;13.24;85.42
58295;BME280;45705;55.592;37.460;2022-09-20T12:43:48;98770.16;;;13.39;84.47
58295;BME280;45705;55.592;37.460;2022-09-20T12:46:39;98767.78;;;13.17;86.83
58295;BME280;45705;55.592;37.460;2022-09-20T12:57:53;98762.25;;;13.59;81.02
58295;BME280;45705;55.592;37.460;2022-09-20T13:00:36;98778.34;;;13.39;82.17
58295;BME280;45705;55.592;37.460;2022-09-20T13:03:24;98768.97;;;13.28;83.22
58295;BME280;45705;55.592;37.460;2022-09-20T13:08:41;98780.84;;;13.32;83.19
58295;BME280;45705;55.592;37.460;2022-09-20T13:11:15;98783.63;;;13.57;81.04
58295;BME280;45705;55.592;37.460;2022-09-20T13:16:20;98787.66;;;13.72;80.66
58295;BME280;45705;55.592;37.460;2022-09-20T13:18:55;98779.56;;;13.63;80.70
58295;BME280;45705;55.592;37.460;2022-09-20T13:21:22;98786.19;;;13.74;81.24
58295;BME280;45705;55.592;37.460;2022-09-20T13:23:49;98787.34;;;13.73;80.67
58295;BME280;45705;55.592;37.460;2022-09-20T13:26:24;98785.06;;;13.75;80.39
58295;BME280;45705;55.592;37.460;2022-09-20T13:28:54;98789.00;;;13.66;81.43
58295;BME280;45705;55.592;37.460;2022-09-20T13:33:46;98793.03;;;13.47;82.22
58295;BME280;45705;55.592;37.460;2022-09-20T13:36:13;98792.06;;;13.52;81.84
58295;BME280;45705;55.592;37.460;2022-09-20T13:38:39;98791.06;;;13.35;83.61
58295;BME280;45705;55.592;37.460;2022-09-20T13:41:09;98797.94;;;13.42;84.04
58295;BME280;45705;55.592;37.460;2022-09-20T13:43:42;98794.94;;;13.13;84.62
58295;BME280;45705;55.592;37.460;2022-09-20T13:46:14;98804.94;;;13.30;84.12
58295;BME280;45705;55.592;37.460;2022-09-20T13:48:46;98799.41;;;13.39;83.35
58295;BME280;45705;55.592;37.460;2022-09-20T13:51:32;98786.44;;;13.82;80.18
58295;BME280;45705;55.592;37.460;2022-09-20T13:54:27;98798.56;;;13.59;80.95
58295;BME280;45705;55.592;37.460;2022-09-20T13:56:56;98799.66;;;13.46;82.16
58295;BME280;45705;55.592;37.460;2022-09-20T13:59:24;98795.16;;;13.63;80.68
58295;BME280;45705;55.592;37.460;2022-09-20T14:01:52;98806.38;;;13.49;81.42
58295;BME280;45705;55.592;37.460;2022-09-20T14:04:21;98808.63;;;13.47;81.73
58295;BME280;45705;55.592;37.460;2022-09-20T14:06:49;98811.25;;;13.43;81.21
58295;BME280;45705;55.592;37.460;2022-09-20T14:09:20;98808.19;;;13.45;81.80
58295;BME280;45705;55.592;37.460;2022-09-20T14:11:48;98817.97;;;13.46;81.52
58295;BME280;45705;55.592;37.460;2022-09-20T14:14:14;98817.44;;;13.31;82.64
58295;BME280;45705;55.592;37.460;2022-09-20T14:16:42;98814.69;;;13.10;83.91
58295;BME280;45705;55.592;37.460;2022-09-20T14:19:17;98814.97;;;12.96;84.56
58295;BME280;45705;55.592;37.460;2022-09-20T14:21:45;98812.50;;;13.04;84.75
58295;BME280;45705;55.592;37.460;2022-09-20T14:26:41;98826.22;;;13.16;84.65
58295;BME280;45705;55.592;37.460;2022-09-20T14:29:26;98822.63;;;13.24;84.30
58295;BME280;45705;55.592;37.460;2022-09-20T14:31:54;98825.13;;;13.38;83.80
58295;BME280;45705;55.592;37.460;2022-09-20T14:34:21;98835.03;;;13.43;84.08
58295;BME280;45705;55.592;37.460;2022-09-20T14:36:48;98825.97;;;13.30;85.13
58295;BME280;45705;55.592;37.460;2022-09-20T14:39:16;98833.59;;;12.94;86.40
58295;BME280;45705;55.592;37.460;2022-09-20T14:41:46;98844.88;;;13.14;84.78
58295;BME280;45705;55.592;37.460;2022-09-20T14:44:31;98843.28;;;13.13;84.32
58295;BME280;45705;55.592;37.460;2022-09-20T14:46:58;98845.91;;;13.00;85.37
58295;BME280;45705;55.592;37.460;2022-09-20T14:51:53;98853.56;;;12.86;86.81
58295;BME280;45705;55.592;37.460;2022-09-20T14:54:38;98850.00;;;12.65;88.28
58295;BME280;45705;55.592;37.460;2022-09-20T14:57:05;98856.41;;;12.69;88.53
58295;BME280;45705;55.592;37.460;2022-09-20T14:59:41;98854.22;;;12.53;88.74
58295;BME280;45705;55.592;37.460;2022-09-20T15:04:34;98860.69;;;12.40;89.72
58295;BME280;45705;55.592;37.460;2022-09-20T15:07:04;98854.31;;;12.36;89.52
58295;BME280;45705;55.592;37.460;2022-09-20T15:09:31;98857.88;;;12.28;90.21
58295;BME280;45705;55.592;37.460;2022-09-20T15:12:33;98867.53;;;12.16;91.39
58295;BME280;45705;55.592;37.460;2022-09-20T15:14:53;98860.75;;;12.23;91.28
58295;BME280;45705;55.592;37.460;2022-09-20T15:17:20;98871.38;;;12.15;92.36
58295;BME280;45705;55.592;37.460;2022-09-20T15:19:47;98874.59;;;12.17;92.56
58295;BME280;45705;55.592;37.460;2022-09-20T15:22:14;98877.81;;;12.11;93.45
58295;BME280;45705;55.592;37.460;2022-09-20T15:24:40;98881.97;;;12.08;94.09
58295;BME280;45705;55.592;37.460;2022-09-20T15:27:06;98889.69;;;11.89;95.49
58295;BME280;45705;55.592;37.460;2022-09-20T15:29:32;98886.66;;;11.81;96.79
58295;BME280;45705;55.592;37.460;2022-09-20T15:31:58;98896.44;;;11.82;96.50
58295;BME280;45705;55.592;37.460;2022-09-20T15:34:24;98891.63;;;11.79;96.88
58295;BME280;45705;55.592;37.460;2022-09-20T15:36:50;98876.09;;;11.71;97.60
58295;BME280;45705;55.592;37.460;2022-09-20T15:39:15;98893.56;;;11.53;99.25
58295;BME280;45705;55.592;37.460;2022-09-20T15:41:41;98892.75;;;11.43;100.00
58295;BME280;45705;55.592;37.460;2022-09-20T15:44:10;98893.88;;;11.42;100.00
58295;BME280;45705;55.592;37.460;2022-09-20T15:46:36;98894.66;;;11.26;100.00
58295;BME280;45705;55.592;37.460;2022-09-20T15:49:03;98901.56;;;11.23;100.00
58295;BME280;45705;55.592;37.460;2022-09-20T15:51:30;98901.69;;;11.18;100.00
58295;BME280;45705;55.592;37.460;2022-09-20T15:54:01;98900.88;;;11.09;100.00
58295;BME280;45705;55.592;37.460;2022-09-20T15:56:30;98906.94;;;10.97;100.00
58295;BME280;45705;55.592;37.460;2022-09-20T15:59:00;98910.44;;;10.89;100.00
58295;BME280;45705;55.592;37.460;2022-09-20T16:01:34;98910.13;;;10.90;100.00
58295;BME280;45705;55.592;37.460;2022-09-20T16:04:10;98920.22;;;10.98;100.00
58295;BME280;45705;55.592;37.460;2022-09-20T16:06:38;98926.47;;;10.99;100.00
58295;BME280;45705;55.592;37.460;2022-09-20T16:09:05;98922.72;;;10.77;100.00
58295;BME280;45705;55.592;37.460;2022-09-20T16:11:32;98929.47;;;10.80;100.00
58295;BME280;45705;55.592;37.460;2022-09-20T16:13:59;98932.13;;;10.62;100.00
58295;BME280;45705;55.592;37.460;2022-09-20T16:16:26;98932.56;;;10.56;100.00
58295;BME280;45705;55.592;37.460;2022-09-20T16:18:52;98932.53;;;10.47;100.00
58295;BME280;45705;55.592;37.460;2022-09-20T16:21:38;98934.91;;;10.40;100.00
58295;BME280;45705;55.592;37.460;2022-09-20T16:24:05;98938.91;;;10.42;100.00
58295;BME280;45705;55.592;37.460;2022-09-20T16:26:31;98930.75;;;10.42;100.00
58295;BME280;45705;55.592;37.460;2022-09-20T16:28:59;98937.13;;;10.38;100.00
58295;BME280;45705;55.592;37.460;2022-09-20T16:31:39;98933.25;;;10.30;100.00
58295;BME280;45705;55.592;37.460;2022-09-20T16:34:12;98936.16;;;10.34;100.00
58295;BME280;45705;55.592;37.460;2022-09-20T16:36:39;98938.56;;;10.35;100.00
58295;BME280;45705;55.592;37.460;2022-09-20T16:39:09;98937.13;;;10.38;100.00
58295;BME280;45705;55.592;37.460;2022-09-20T16:41:35;98915.88;;;10.17;100.00
58295;BME280;45705;55.592;37.460;2022-09-20T16:44:02;98945.34;;;10.24;100.00
58295;BME280;45705;55.592;37.460;2022-09-20T16:46:29;98937.94;;;10.16;100.00
58295;BME280;45705;55.592;37.460;2022-09-20T16:48:56;98947.50;;;10.13;100.00
58295;BME280;45705;55.592;37.460;2022-09-20T16:51:30;98943.31;;;10.07;100.00
58295;BME280;45705;55.592;37.460;2022-09-20T16:54:00;98940.59;;;10.07;100.00
58295;BME280;45705;55.592;37.460;2022-09-20T16:56:28;98941.94;;;9.96;100.00
58295;BME280;45705;55.592;37.460;2022-09-20T16:58:55;98950.97;;;10.05;100.00
58295;BME280;45705;55.592;37.460;2022-09-20T17:01:22;98938.50;;;10.04;100.00
58295;BME280;45705;55.592;37.460;2022-09-20T17:03:47;98950.59;;;9.98;100.00
58295;BME280;45705;55.592;37.460;2022-09-20T17:06:15;98957.50;;;10.04;100.00
58295;BME280;45705;55.592;37.460;2022-09-20T17:08:42;98957.16;;;9.97;100.00
58295;BME280;45705;55.592;37.460;2022-09-20T17:11:10;98956.03;;;9.98;100.00
58295;BME280;45705;55.592;37.460;2022-09-20T17:13:38;98960.47;;;9.94;100.00
58295;BME280;45705;55.592;37.460;2022-09-20T17:16:10;98967.75;;;9.84;100.00
58295;BME280;45705;55.592;37.460;2022-09-20T17:18:36;98963.44;;;9.83;100.00
58295;BME280;45705;55.592;37.460;2022-09-20T17:21:14;98959.09;;;9.82;100.00
58295;BME280;45705;55.592;37.460;2022-09-20T17:23:41;98962.50;;;9.88;100.00
58295;BME280;45705;55.592;37.460;2022-09-20T17:26:11;98969.13;;;9.73;100.00
58295;BME280;45705;55.592;37.460;2022-09-20T17:28:39;98963.16;;;9.71;100.00
58295;BME280;45705;55.592;37.460;2022-09-20T17:31:06;98968.59;;;9.71;100.00
58295;BME280;45705;55.592;37.460;2022-09-20T17:33:34;98967.00;;;9.70;100.00
58295;BME280;45705;55.592;37.460;2022-09-20T17:36:01;98973.66;;;9.64;100.00
58295;BME280;45705;55.592;37.460;2022-09-20T17:38:29;98975.50;;;9.55;100.00
58295;BME280;45705;55.592;37.460;2022-09-20T17:41:07;98975.22;;;9.79;100.00
58295;BME280;45705;55.592;37.460;2022-09-20T17:43:34;98979.69;;;9.61;100.00